Time;durP1;ratioP1;P1;durP2;ratioP2;P2;SDS_P1;SDS_P2;PMS_P1;PMS_P2;Temp;Humidity;BMP_temperature;BMP_pressure;BME280_temperature;BME280_humidity;BME280_pressure;Samples;Min_cycle;Max_cycle;Signal;HPM_P1;HPM_P2
2022/09/16 00:00:59;;;;;;;1.65;0.60;;;15.10;99.90;;;;;;5053739;28;20082;-80
2022/09/16 00:03:27;;;;;;;0.60;0.40;;;15.10;99.90;;;;;;5052861;28;20457;-78
2022/09/16 00:05:54;;;;;;;0.55;0.35;;;15.20;99.90;;;;;;5053627;28;20108;-80
2022/09/16 00:08:22;;;;;;;1.33;0.50;;;15.30;99.90;;;;;;5053446;28;20425;-80
2022/09/16 00:10:51;;;;;;;0.88;0.52;;;15.30;99.90;;;;;;5052948;28;20024;-80
2022/09/16 00:13:19;;;;;;;2.22;0.47;;;15.30;99.90;;;;;;5046711;28;20033;-80
2022/09/16 00:15:52;;;;;;;1.42;1.02;;;15.30;99.90;;;;;;5052794;28;20017;-79
2022/09/16 00:18:20;;;;;;;1.75;0.82;;;15.50;99.90;;;;;;5050293;28;20028;-79
2022/09/16 00:20:50;;;;;;;3.30;0.45;;;15.50;99.90;;;;;;5052630;28;20119;-79
2022/09/16 00:23:19;;;;;;;2.25;0.60;;;15.50;99.90;;;;;;5052883;28;20029;-79
2022/09/16 00:25:56;;;;;;;1.85;0.73;;;15.60;99.90;;;;;;5052652;28;20017;-80
2022/09/16 00:28:24;;;;;;;1.35;0.40;;;15.60;99.90;;;;;;5052840;28;20037;-78
2022/09/16 00:30:51;;;;;;;2.10;1.20;;;15.70;99.90;;;;;;5054181;28;20029;-80
2022/09/16 00:33:20;;;;;;;2.78;0.90;;;15.80;99.90;;;;;;5054801;28;20029;-80
2022/09/16 00:35:48;;;;;;;2.08;0.70;;;15.90;99.90;;;;;;5056125;28;20047;-81
2022/09/16 00:38:15;;;;;;;2.75;0.70;;;16.00;99.90;;;;;;5056585;28;20544;-83
2022/09/16 00:40:48;;;;;;;1.10;0.60;;;16.10;99.90;;;;;;5055821;28;20039;-80
2022/09/16 00:43:18;;;;;;;1.40;0.68;;;16.10;99.90;;;;;;5054937;28;20482;-81
2022/09/16 00:46:01;;;;;;;2.70;0.50;;;16.20;99.90;;;;;;5057173;28;20090;-81
2022/09/16 00:48:31;;;;;;;0.95;0.50;;;16.20;99.90;;;;;;5056949;28;20021;-81
2022/09/16 00:51:06;;;;;;;2.83;0.50;;;16.30;99.90;;;;;;5056586;28;20591;-79
2022/09/16 00:53:50;;;;;;;1.70;0.45;;;16.30;99.90;;;;;;5056288;28;20033;-79
2022/09/16 00:56:23;;;;;;;2.15;0.77;;;16.50;99.90;;;;;;5056961;28;20494;-79
2022/09/16 00:59:03;;;;;;;1.15;0.63;;;16.60;99.90;;;;;;5056968;28;20036;-79
2022/09/16 01:01:31;;;;;;;1.70;0.60;;;16.50;99.90;;;;;;5056515;28;20024;-77
2022/09/16 01:04:08;;;;;;;1.20;0.40;;;16.50;99.90;;;;;;5056412;28;20021;-79
2022/09/16 01:06:38;;;;;;;0.90;0.50;;;16.60;99.90;;;;;;5056986;28;20466;-80
2022/09/16 01:09:06;;;;;;;2.05;0.50;;;16.60;99.90;;;;;;5056505;28;20071;-80
2022/09/16 01:11:34;;;;;;;2.65;0.70;;;16.60;99.90;;;;;;5056460;28;20017;-79
2022/09/16 01:17:01;;;;;;;1.75;0.47;;;16.70;99.90;;;;;;5055508;28;20028;-77
2022/09/16 01:19:54;;;;;;;1.40;0.70;;;16.90;99.90;;;;;;5056432;28;20604;-76
2022/09/16 01:22:31;;;;;;;2.35;0.70;;;16.90;99.90;;;;;;5056405;28;20033;-79
2022/09/16 01:25:36;;;;;;;2.08;0.65;;;16.90;99.90;;;;;;5055856;28;20017;-78
2022/09/16 01:28:31;;;;;;;1.70;0.55;;;16.90;99.90;;;;;;5056565;28;20485;-79
2022/09/16 01:31:21;;;;;;;1.40;0.70;;;17.00;99.90;;;;;;5056827;28;20021;-77
2022/09/16 01:34:12;;;;;;;0.88;0.68;;;17.10;99.90;;;;;;5056357;28;20027;-80
2022/09/16 01:36:52;;;;;;;0.45;0.38;;;17.10;99.90;;;;;;5055788;28;20029;-77
2022/09/16 01:39:38;;;;;;;2.42;0.60;;;17.30;99.90;;;;;;5053540;28;20020;-78
2022/09/16 01:42:35;;;;;;;0.85;0.47;;;17.30;99.90;;;;;;5053695;28;20436;-77
2022/09/16 01:45:44;;;;;;;2.05;0.47;;;17.40;99.90;;;;;;5054137;28;20049;-79
2022/09/16 01:48:37;;;;;;;1.25;0.63;;;17.40;99.90;;;;;;5038606;28;20041;-79
2022/09/16 01:51:19;;;;;;;0.70;0.40;;;17.40;99.90;;;;;;5053216;28;20043;-80
2022/09/16 01:54:17;;;;;;;3.20;0.70;;;17.50;99.90;;;;;;5053111;28;20104;-79
2022/09/16 01:56:59;;;;;;;4.88;0.68;;;17.60;99.90;;;;;;5053140;28;20070;-78
2022/09/16 01:59:35;;;;;;;2.13;0.60;;;17.70;99.90;;;;;;5053260;28;20014;-80
2022/09/16 02:02:10;;;;;;;2.80;0.75;;;17.90;99.90;;;;;;5052245;28;20072;-81
2022/09/16 02:04:43;;;;;;;1.03;0.43;;;17.90;99.90;;;;;;5055381;28;20017;-81
2022/09/16 02:07:15;;;;;;;1.73;0.70;;;17.80;99.90;;;;;;5053480;28;20028;-78
2022/09/16 02:09:58;;;;;;;0.77;0.50;;;17.80;99.90;;;;;;5052161;28;20037;-78
2022/09/16 02:12:32;;;;;;;2.65;0.47;;;17.90;99.90;;;;;;5052411;28;20029;-82
2022/09/16 02:15:05;;;;;;;0.70;0.50;;;18.10;99.90;;;;;;5054521;28;20363;-77
2022/09/16 02:17:36;;;;;;;1.17;0.38;;;18.20;99.90;;;;;;5053540;28;20048;-77
2022/09/16 02:20:17;;;;;;;2.05;0.88;;;18.20;99.90;;;;;;5051856;28;20010;-78
2022/09/16 02:22:48;;;;;;;5.57;0.68;;;18.40;99.90;;;;;;5052135;28;20049;-77
2022/09/16 02:25:18;;;;;;;4.53;1.02;;;18.30;99.90;;;;;;5054635;28;20453;-77
2022/09/16 02:27:48;;;;;;;0.77;0.40;;;18.10;99.90;;;;;;5051514;28;20393;-77
2022/09/16 02:30:19;;;;;;;2.22;0.70;;;18.20;99.90;;;;;;5054285;28;20406;-77
2022/09/16 02:32:51;;;;;;;1.70;0.50;;;18.40;99.90;;;;;;5051094;28;20024;-77
2022/09/16 02:35:21;;;;;;;0.75;0.57;;;18.60;99.90;;;;;;5054223;28;20021;-76
2022/09/16 02:38:04;;;;;;;0.55;0.20;;;18.70;99.90;;;;;;5053126;28;20055;-76
2022/09/16 02:40:56;;;;;;;1.35;0.52;;;18.60;99.90;;;;;;5052886;28;20145;-78
2022/09/16 02:43:25;;;;;;;2.92;0.45;;;18.80;99.90;;;;;;5052831;28;20024;-77
2022/09/16 02:46:14;;;;;;;1.38;0.52;;;18.70;99.90;;;;;;5054082;28;20028;-77
2022/09/16 02:49:12;;;;;;;3.67;0.43;;;18.60;99.90;;;;;;5052469;28;20068;-77
2022/09/16 02:52:02;;;;;;;2.83;0.57;;;18.70;99.90;;;;;;5050200;28;20029;-77
2022/09/16 02:54:38;;;;;;;1.10;0.40;;;18.70;99.90;;;;;;5051977;28;20021;-77
2022/09/16 02:57:06;;;;;;;1.05;0.30;;;19.00;99.90;;;;;;5052661;28;20428;-76
2022/09/16 02:59:34;;;;;;;0.57;0.32;;;19.00;99.90;;;;;;5053763;28;20024;-79
2022/09/16 03:02:02;;;;;;;3.17;0.50;;;18.90;99.90;;;;;;5053576;28;20040;-77
2022/09/16 03:04:30;;;;;;;2.40;0.77;;;18.90;99.90;;;;;;5053667;28;20052;-77
2022/09/16 03:06:58;;;;;;;2.13;0.52;;;18.90;99.90;;;;;;5053735;28;20013;-77
2022/09/16 03:09:28;;;;;;;2.33;0.73;;;18.90;99.90;;;;;;5053546;28;20075;-77
2022/09/16 03:12:17;;;;;;;1.02;0.50;;;18.80;99.90;;;;;;5054277;28;20135;-77
2022/09/16 03:14:59;;;;;;;0.68;0.30;;;18.80;99.90;;;;;;5054020;28;20074;-77
2022/09/16 03:17:51;;;;;;;5.50;0.40;;;18.90;99.90;;;;;;5054089;28;20044;-77
2022/09/16 03:20:31;;;;;;;1.30;0.40;;;18.90;99.90;;;;;;5054553;28;20058;-78
2022/09/16 03:23:18;;;;;;;1.98;0.52;;;18.90;99.90;;;;;;5053424;28;20029;-77
2022/09/16 03:26:20;;;;;;;0.52;0.32;;;18.90;99.90;;;;;;5054054;28;20426;-77
2022/09/16 03:29:00;;;;;;;1.58;0.75;;;19.20;99.90;;;;;;5052526;28;20033;-77
2022/09/16 03:31:30;;;;;;;1.25;0.45;;;19.20;99.90;;;;;;5053870;28;20414;-75
2022/09/16 03:34:20;;;;;;;5.00;0.40;;;19.30;98.10;;;;;;5053992;28;20086;-77
2022/09/16 03:36:53;;;;;;;0.98;0.40;;;19.20;99.90;;;;;;5053965;28;20075;-77
2022/09/16 03:39:22;;;;;;;1.05;0.30;;;19.20;99.90;;;;;;5053977;28;20120;-77
2022/09/16 03:41:50;;;;;;;0.60;0.20;;;19.30;99.90;;;;;;5053314;28;20021;-77
2022/09/16 03:44:18;;;;;;;0.95;0.38;;;19.30;99.90;;;;;;5053861;28;20017;-77
2022/09/16 03:46:46;;;;;;;1.13;0.30;;;19.40;99.90;;;;;;5050493;28;20363;-77
2022/09/16 03:49:13;;;;;;;3.63;0.70;;;19.40;99.90;;;;;;5053240;28;20484;-77
2022/09/16 03:51:41;;;;;;;2.45;0.47;;;19.50;99.90;;;;;;5053229;28;20520;-76
2022/09/16 03:54:09;;;;;;;1.52;0.50;;;19.60;99.90;;;;;;5053770;28;20025;-76
2022/09/16 03:56:37;;;;;;;2.05;0.65;;;19.60;99.90;;;;;;5053648;28;20024;-79
2022/09/16 03:59:04;;;;;;;4.22;0.55;;;19.70;99.00;;;;;;5053704;28;20374;-77
2022/09/16 04:01:32;;;;;;;1.20;0.55;;;19.80;99.90;;;;;;5052856;28;20154;-77
2022/09/16 04:04:00;;;;;;;1.25;0.47;;;19.80;98.10;;;;;;5053515;28;20039;-78
2022/09/16 04:06:27;;;;;;;2.45;0.68;;;19.90;99.90;;;;;;5052954;28;20102;-77
2022/09/16 04:08:57;;;;;;;0.73;0.32;;;19.80;99.90;;;;;;5053611;28;20039;-80
2022/09/16 04:11:25;;;;;;;1.80;0.38;;;19.90;99.90;;;;;;5053110;28;20506;-79
2022/09/16 04:13:52;;;;;;;1.38;0.40;;;19.90;99.90;;;;;;5050332;28;20025;-79
2022/09/16 04:16:21;;;;;;;3.13;0.63;;;19.70;99.90;;;;;;5052744;28;20025;-78
2022/09/16 04:18:49;;;;;;;0.95;0.50;;;19.80;99.90;;;;;;5048743;28;20351;-77
2022/09/16 04:21:17;;;;;;;0.88;0.38;;;19.80;99.90;;;;;;5052592;28;20017;-78
2022/09/16 04:23:45;;;;;;;1.20;0.60;;;19.90;99.90;;;;;;5051877;28;20047;-78
2022/09/16 04:26:13;;;;;;;2.20;0.40;;;19.90;99.90;;;;;;5049816;28;20021;-76
2022/09/16 04:28:40;;;;;;;2.95;0.40;;;20.00;99.90;;;;;;5052808;28;20021;-79
2022/09/16 04:31:11;;;;;;;3.75;0.40;;;20.00;99.90;;;;;;5053024;28;20074;-78
2022/09/16 04:33:39;;;;;;;2.03;0.40;;;19.90;99.90;;;;;;5053275;28;20029;-80
2022/09/16 04:36:14;;;;;;;1.30;0.40;;;19.90;99.90;;;;;;5053010;28;20052;-79
2022/09/16 04:38:44;;;;;;;1.63;0.60;;;20.10;99.90;;;;;;5053452;28;20033;-77
2022/09/16 04:41:17;;;;;;;1.80;0.57;;;20.10;99.90;;;;;;5053240;28;20051;-80
2022/09/16 04:43:46;;;;;;;1.02;0.57;;;20.10;99.80;;;;;;5052867;28;20519;-77
2022/09/16 04:46:13;;;;;;;0.50;0.35;;;20.20;99.90;;;;;;5052945;28;20108;-77
2022/09/16 04:48:41;;;;;;;1.65;0.50;;;20.20;99.90;;;;;;5052929;28;20037;-77
2022/09/16 04:51:12;;;;;;;3.42;0.45;;;20.10;99.90;;;;;;5052663;28;20452;-77
2022/09/16 04:53:42;;;;;;;8.43;1.05;;;20.10;99.80;;;;;;5052022;28;20017;-77
2022/09/16 04:56:16;;;;;;;2.72;0.47;;;20.10;98.40;;;;;;5049869;28;20020;-77
2022/09/16 04:58:46;;;;;;;1.52;0.50;;;20.10;98.90;;;;;;5052422;28;20021;-77
2022/09/16 05:01:21;;;;;;;2.17;0.52;;;20.10;97.40;;;;;;5051352;28;20028;-77
2022/09/16 05:03:50;;;;;;;3.75;0.40;;;20.00;95.80;;;;;;5051877;28;20033;-77
2022/09/16 05:06:24;;;;;;;1.42;0.38;;;19.90;97.80;;;;;;5051611;28;20382;-77
2022/09/16 05:08:53;;;;;;;3.55;0.55;;;20.00;96.70;;;;;;5051852;28;20401;-78
2022/09/16 05:11:24;;;;;;;6.68;0.63;;;19.90;96.50;;;;;;5050395;28;20236;-77
2022/09/16 05:13:52;;;;;;;0.82;0.28;;;19.80;96.60;;;;;;5048852;28;20031;-77
2022/09/16 05:16:21;;;;;;;1.30;0.38;;;19.80;97.10;;;;;;5049431;28;20017;-76
2022/09/16 05:18:51;;;;;;;6.03;0.70;;;19.70;97.10;;;;;;5052580;28;20029;-76
2022/09/16 05:21:20;;;;;;;2.08;0.70;;;19.80;96.50;;;;;;5053965;28;20021;-76
2022/09/16 05:23:49;;;;;;;1.73;0.40;;;19.70;97.70;;;;;;5054290;28;20025;-77
2022/09/16 05:26:22;;;;;;;3.53;0.60;;;19.60;96.30;;;;;;5055559;28;20025;-77
2022/09/16 05:28:50;;;;;;;2.53;0.80;;;19.60;96.20;;;;;;5056779;28;20064;-78
2022/09/16 05:31:27;;;;;;;2.10;0.50;;;19.60;97.60;;;;;;5056675;28;20024;-78
2022/09/16 05:33:58;;;;;;;2.60;0.45;;;19.60;95.80;;;;;;5056485;28;20032;-77
2022/09/16 05:36:27;;;;;;;3.22;0.45;;;19.60;96.10;;;;;;5056244;28;20100;-78
2022/09/16 05:38:55;;;;;;;3.03;0.30;;;19.50;97.00;;;;;;5056454;28;20024;-77
2022/09/16 05:41:24;;;;;;;1.52;0.68;;;19.50;98.00;;;;;;5054971;28;20025;-76
2022/09/16 05:43:53;;;;;;;1.13;0.32;;;19.30;97.60;;;;;;5056342;28;20108;-77
2022/09/16 05:46:22;;;;;;;1.30;0.40;;;19.10;97.60;;;;;;5056214;28;20025;-77
2022/09/16 05:48:53;;;;;;;2.50;0.82;;;19.10;97.80;;;;;;5055996;28;20029;-77
2022/09/16 05:51:23;;;;;;;4.28;1.00;;;19.10;98.60;;;;;;5056170;28;20020;-77
2022/09/16 05:53:52;;;;;;;1.40;0.50;;;19.10;97.70;;;;;;5056215;28;20021;-78
2022/09/16 05:56:25;;;;;;;1.38;0.40;;;19.10;98.60;;;;;;5055909;28;20024;-78
2022/09/16 05:58:58;;;;;;;4.43;0.70;;;18.90;98.70;;;;;;5055771;28;20124;-77
2022/09/16 06:01:35;;;;;;;1.52;0.57;;;18.90;99.00;;;;;;5055378;28;20398;-78
2022/09/16 06:04:05;;;;;;;2.70;0.60;;;18.80;99.90;;;;;;5055943;28;20033;-78
2022/09/16 06:06:35;;;;;;;1.67;0.68;;;18.80;99.70;;;;;;5055968;28;20013;-78
2022/09/16 06:09:09;;;;;;;3.13;0.70;;;18.90;99.90;;;;;;5055469;28;20040;-76
2022/09/16 06:11:47;;;;;;;1.10;0.40;;;18.90;99.00;;;;;;5055683;28;20021;-76
2022/09/16 06:14:17;;;;;;;3.53;0.68;;;18.80;98.80;;;;;;5054410;28;20025;-76
2022/09/16 06:16:45;;;;;;;1.88;0.75;;;18.70;99.50;;;;;;5055286;28;20017;-76
2022/09/16 06:19:16;;;;;;;3.10;0.93;;;18.60;98.90;;;;;;5055462;28;20050;-76
2022/09/16 06:21:45;;;;;;;3.55;0.45;;;18.50;99.60;;;;;;5055365;28;20017;-77
2022/09/16 06:24:14;;;;;;;1.23;0.50;;;18.40;99.90;;;;;;5055439;28;20025;-76
2022/09/16 06:26:44;;;;;;;3.17;0.73;;;18.30;99.80;;;;;;5055240;28;20074;-78
2022/09/16 06:29:13;;;;;;;2.55;0.50;;;18.30;99.90;;;;;;5053676;28;20413;-77
2022/09/16 06:31:41;;;;;;;1.65;0.47;;;18.10;99.90;;;;;;5054519;28;20505;-78
2022/09/16 06:34:15;;;;;;;1.67;0.50;;;18.00;99.90;;;;;;5055005;28;20032;-78
2022/09/16 06:36:43;;;;;;;2.65;0.60;;;18.00;99.90;;;;;;5054948;28;20541;-78
2022/09/16 06:39:13;;;;;;;1.02;0.63;;;17.90;99.90;;;;;;5055312;28;20032;-78
2022/09/16 06:41:41;;;;;;;3.60;0.88;;;17.90;99.90;;;;;;5054964;28;20017;-78
2022/09/16 06:44:09;;;;;;;1.00;0.52;;;17.90;99.90;;;;;;5055071;28;20075;-78
2022/09/16 06:46:37;;;;;;;6.63;0.68;;;17.80;99.90;;;;;;5054975;28;20374;-77
2022/09/16 06:49:05;;;;;;;1.08;0.50;;;17.70;99.90;;;;;;5054697;28;20040;-78
2022/09/16 06:51:35;;;;;;;2.85;0.70;;;17.70;99.90;;;;;;5054539;28;20028;-77
2022/09/16 06:54:05;;;;;;;1.85;0.47;;;17.60;99.90;;;;;;5053435;28;20025;-77
2022/09/16 06:56:34;;;;;;;1.75;0.52;;;17.60;99.90;;;;;;5054792;28;20048;-77
2022/09/16 06:59:02;;;;;;;2.70;0.60;;;17.60;99.90;;;;;;5054704;28;20025;-77
2022/09/16 07:01:31;;;;;;;2.45;0.70;;;17.60;99.90;;;;;;5054363;28;20029;-77
2022/09/16 07:04:04;;;;;;;2.28;0.93;;;17.60;99.90;;;;;;5053276;28;20393;-77
2022/09/16 07:06:33;;;;;;;2.05;0.68;;;17.50;99.90;;;;;;5054686;28;20049;-76
2022/09/16 07:09:00;;;;;;;3.00;0.52;;;17.50;99.90;;;;;;5054490;28;20056;-76
2022/09/16 07:11:28;;;;;;;0.88;0.40;;;17.40;99.90;;;;;;5054533;28;20019;-77
2022/09/16 07:13:59;;;;;;;3.50;0.82;;;17.30;99.90;;;;;;5054591;28;20033;-77
2022/09/16 07:16:27;;;;;;;2.05;0.60;;;17.20;99.90;;;;;;5054158;28;20100;-77
2022/09/16 07:18:56;;;;;;;2.15;0.60;;;17.20;99.90;;;;;;5054365;28;20017;-76
2022/09/16 07:21:30;;;;;;;2.90;0.65;;;17.20;99.90;;;;;;5054279;28;20020;-77
2022/09/16 07:24:00;;;;;;;5.63;1.25;;;17.10;99.90;;;;;;5054300;28;20376;-77
2022/09/16 07:26:34;;;;;;;1.08;0.40;;;17.10;99.90;;;;;;5054103;28;20017;-77
2022/09/16 07:29:05;;;;;;;1.65;0.57;;;17.00;99.90;;;;;;5054132;28;20444;-77
2022/09/16 07:31:35;;;;;;;0.45;0.25;;;17.00;99.90;;;;;;5054600;28;20029;-77
2022/09/16 07:34:05;;;;;;;1.27;0.70;;;16.90;99.90;;;;;;5054557;28;20028;-77
2022/09/16 07:36:36;;;;;;;1.92;0.70;;;16.90;99.90;;;;;;5054039;28;20100;-77
2022/09/16 07:39:05;;;;;;;1.13;0.32;;;16.80;99.90;;;;;;5054289;28;20021;-77
2022/09/16 07:41:35;;;;;;;3.28;0.77;;;16.70;99.90;;;;;;5053245;28;20095;-77
2022/09/16 07:44:06;;;;;;;1.80;0.50;;;16.70;99.90;;;;;;5053653;28;20024;-77
2022/09/16 07:46:38;;;;;;;4.68;0.57;;;16.60;99.90;;;;;;5054065;28;20025;-77
2022/09/16 07:49:07;;;;;;;1.42;0.43;;;16.60;99.90;;;;;;5053787;28;20048;-77
2022/09/16 07:51:35;;;;;;;4.50;0.77;;;16.50;99.90;;;;;;5053852;28;20025;-76
2022/09/16 07:54:08;;;;;;;2.17;0.85;;;16.40;99.90;;;;;;5052408;28;20546;-77
2022/09/16 07:56:37;;;;;;;2.17;0.80;;;16.40;99.90;;;;;;5054028;28;20025;-77
2022/09/16 07:59:08;;;;;;;1.95;0.70;;;16.30;99.90;;;;;;5053921;28;20029;-77
2022/09/16 08:01:38;;;;;;;2.25;0.70;;;16.20;99.90;;;;;;5053634;28;20076;-77
2022/09/16 08:04:05;;;;;;;4.35;0.70;;;16.20;99.90;;;;;;5053717;28;20025;-77
2022/09/16 08:06:38;;;;;;;6.15;1.17;;;16.20;99.90;;;;;;5053621;28;20067;-77
2022/09/16 08:09:05;;;;;;;1.30;0.77;;;16.10;99.90;;;;;;5053626;28;20102;-77
2022/09/16 08:11:33;;;;;;;4.40;0.77;;;16.20;99.90;;;;;;5053651;28;20025;-77
2022/09/16 08:14:02;;;;;;;2.83;0.70;;;16.30;99.90;;;;;;5053267;28;20079;-77
2022/09/16 08:16:29;;;;;;;2.05;0.50;;;16.30;99.90;;;;;;5053333;28;20033;-77
2022/09/16 08:18:58;;;;;;;3.65;0.90;;;16.30;99.90;;;;;;5052397;28;20025;-78
2022/09/16 08:21:27;;;;;;;3.63;0.60;;;16.40;99.90;;;;;;5053560;28;20029;-77
2022/09/16 08:23:56;;;;;;;3.40;0.50;;;16.40;99.90;;;;;;5053514;28;20112;-76
2022/09/16 08:26:24;;;;;;;1.48;0.38;;;16.40;99.90;;;;;;5053411;28;20075;-76
2022/09/16 08:28:51;;;;;;;2.25;0.60;;;16.40;99.90;;;;;;5053618;28;20032;-78
2022/09/16 08:31:20;;;;;;;2.10;0.68;;;16.40;99.90;;;;;;5053543;28;20020;-78
2022/09/16 08:33:48;;;;;;;1.92;0.70;;;16.30;99.90;;;;;;5052128;28;20432;-79
2022/09/16 08:36:18;;;;;;;2.47;0.85;;;16.40;99.90;;;;;;5053113;28;20478;-79
2022/09/16 08:38:47;;;;;;;2.05;0.65;;;16.40;99.90;;;;;;5053744;28;20025;-76
2022/09/16 08:41:20;;;;;;;1.75;0.65;;;16.40;99.90;;;;;;5053331;28;20021;-76
2022/09/16 08:44:12;;;;;;;5.82;0.70;;;16.30;99.90;;;;;;5053875;28;20497;-77
2022/09/16 08:47:02;;;;;;;2.00;0.70;;;16.30;99.90;;;;;;5051640;28;20028;-77
2022/09/16 08:49:46;;;;;;;1.40;0.68;;;16.20;99.90;;;;;;5052865;28;20047;-77
2022/09/16 08:52:20;;;;;;;2.83;1.00;;;16.20;99.90;;;;;;5051186;28;20100;-78
2022/09/16 08:54:52;;;;;;;5.90;0.75;;;16.10;99.90;;;;;;5054659;28;20363;-79
2022/09/16 08:57:23;;;;;;;3.92;1.15;;;16.10;99.90;;;;;;5056161;28;20032;-79
2022/09/16 09:00:14;;;;;;;1.98;0.95;;;16.10;99.90;;;;;;5055738;28;20524;-79
2022/09/16 09:03:15;;;;;;;2.63;0.90;;;16.10;99.90;;;;;;5054996;28;20057;-79
2022/09/16 09:05:58;;;;;;;4.30;1.30;;;16.00;99.90;;;;;;5035817;28;20029;-79
2022/09/16 09:08:49;;;;;;;4.10;1.10;;;16.00;99.90;;;;;;5038186;28;20061;-77
2022/09/16 09:11:42;;;;;;;2.83;0.95;;;16.00;99.90;;;;;;5038967;28;20382;-78
2022/09/16 09:14:32;;;;;;;3.97;1.20;;;16.00;99.90;;;;;;5037456;28;20028;-78
2022/09/16 09:17:45;;;;;;;5.57;1.10;;;16.00;99.90;;;;;;5036939;28;20021;-78
2022/09/16 09:20:25;;;;;;;2.13;0.65;;;15.90;99.90;;;;;;4996232;28;20458;-76
2022/09/16 09:23:11;;;;;;;2.90;0.73;;;16.00;99.90;;;;;;4992445;28;20049;-78
2022/09/16 09:25:56;;;;;;;;;;;16.00;99.90;;;;;;5027630;28;20156;-78
2022/09/16 09:28:56;;;;;;;3.25;0.80;;;15.90;99.90;;;;;;5037214;28;19913;-78
2022/09/16 09:31:57;;;;;;;1.23;0.68;;;15.90;99.90;;;;;;5037070;28;20022;-77
2022/09/16 09:34:28;;;;;;;2.42;0.60;;;15.80;99.90;;;;;;5038259;28;20033;-77
2022/09/16 09:37:07;;;;;;;5.82;0.93;;;15.70;99.90;;;;;;5036454;28;20021;-77
2022/09/16 09:40:20;;;;;;;4.07;1.10;;;15.70;99.90;;;;;;5034880;28;20021;-77
2022/09/16 09:43:04;;;;;;;1.85;0.75;;;15.60;99.90;;;;;;4992714;28;20587;-77
2022/09/16 09:45:51;;;;;;;1.20;0.77;;;15.60;99.90;;;;;;5045171;28;20036;-77
2022/09/16 09:48:31;;;;;;;2.10;0.70;;;15.60;99.90;;;;;;5053935;28;20076;-77
2022/09/16 09:51:04;;;;;;;5.30;0.95;;;15.50;99.90;;;;;;5054005;28;20059;-77
2022/09/16 09:53:48;;;;;;;1.45;0.77;;;15.50;99.90;;;;;;5054935;28;20021;-77
2022/09/16 09:56:34;;;;;;;1.95;0.73;;;15.40;99.90;;;;;;5053342;28;20097;-78
2022/09/16 09:59:25;;;;;;;1.23;0.60;;;15.40;99.90;;;;;;5050014;28;20018;-77
2022/09/16 10:02:00;;;;;;;3.60;0.75;;;15.40;99.90;;;;;;5047669;28;20052;-78
2022/09/16 10:04:38;;;;;;;1.30;0.47;;;15.40;99.90;;;;;;5046116;28;20018;-78
2022/09/16 10:07:06;;;;;;;2.88;0.80;;;15.30;99.90;;;;;;5041517;28;20022;-77
2022/09/16 10:09:36;;;;;;;0.75;0.40;;;15.30;99.90;;;;;;5041841;28;20037;-78
2022/09/16 10:12:04;;;;;;;2.55;0.50;;;15.30;99.90;;;;;;5042963;28;20021;-79
2022/09/16 10:14:37;;;;;;;4.10;0.70;;;15.30;99.90;;;;;;5040192;28;20018;-78
2022/09/16 10:17:14;;;;;;;1.67;1.00;;;15.20;99.90;;;;;;5045554;28;20025;-78
2022/09/16 10:19:51;;;;;;;3.40;0.88;;;15.20;99.90;;;;;;5044016;28;20045;-76
2022/09/16 10:22:34;;;;;;;1.48;0.70;;;15.20;99.90;;;;;;5043542;28;20125;-78
2022/09/16 10:25:05;;;;;;;1.67;0.70;;;15.10;99.90;;;;;;5042050;28;20021;-77
2022/09/16 10:27:36;;;;;;;1.40;0.68;;;15.10;99.90;;;;;;5041529;28;20057;-78
2022/09/16 10:30:14;;;;;;;7.10;1.02;;;15.00;99.90;;;;;;5044681;28;20112;-78
2022/09/16 10:32:58;;;;;;;2.80;0.93;;;15.10;99.90;;;;;;5044473;28;20077;-78
2022/09/16 10:35:37;;;;;;;1.60;0.52;;;15.00;99.90;;;;;;5071843;28;20021;-78
2022/09/16 10:38:06;;;;;;;2.00;0.57;;;15.10;99.90;;;;;;5077057;28;20021;-77
2022/09/16 10:40:35;;;;;;;4.25;0.75;;;15.10;99.90;;;;;;5083711;28;20039;-80
2022/09/16 10:43:14;;;;;;;1.55;0.50;;;15.00;99.90;;;;;;5072458;28;20016;-78
2022/09/16 10:45:49;;;;;;;0.82;0.35;;;15.00;99.90;;;;;;5071488;28;20013;-79
2022/09/16 10:48:21;;;;;;;5.00;0.73;;;15.10;99.90;;;;;;5065566;28;20028;-77
2022/09/16 10:51:03;;;;;;;2.80;0.40;;;15.00;99.90;;;;;;5053720;28;20040;-78
2022/09/16 10:53:39;;;;;;;1.95;0.52;;;15.00;99.90;;;;;;5053365;28;20017;-77
2022/09/16 10:56:17;;;;;;;3.45;0.90;;;15.00;99.90;;;;;;5050699;28;20091;-77
2022/09/16 10:58:45;;;;;;;2.00;0.60;;;14.90;99.90;;;;;;5053291;28;20027;-77
2022/09/16 11:01:33;;;;;;;1.40;0.45;;;14.90;99.90;;;;;;5053559;28;20031;-76
2022/09/16 11:04:20;;;;;;;2.25;0.90;;;14.90;99.90;;;;;;5053303;28;20025;-76
2022/09/16 11:07:03;;;;;;;2.83;0.88;;;14.90;99.90;;;;;;5053484;28;20035;-76
2022/09/16 11:09:45;;;;;;;6.55;0.88;;;14.90;99.90;;;;;;5053428;28;20116;-76
2022/09/16 11:12:53;;;;;;;1.73;0.63;;;14.90;99.90;;;;;;5053456;28;20098;-76
2022/09/16 11:15:45;;;;;;;3.53;0.80;;;14.90;99.90;;;;;;5049813;28;20136;-77
2022/09/16 11:18:49;;;;;;;2.83;0.80;;;14.90;99.90;;;;;;5053262;28;20075;-77
2022/09/16 11:21:41;;;;;;;0.70;0.38;;;15.00;99.90;;;;;;5050772;28;20029;-76
2022/09/16 11:24:21;;;;;;;1.88;0.55;;;15.00;99.90;;;;;;5051194;28;20073;-78
2022/09/16 11:27:07;;;;;;;2.22;0.77;;;15.00;99.90;;;;;;5051631;28;20469;-78
2022/09/16 11:29:50;;;;;;;1.52;0.60;;;14.90;99.90;;;;;;5052937;28;20090;-78
2022/09/16 11:32:39;;;;;;;1.38;0.40;;;14.90;99.90;;;;;;5052602;28;20020;-78
2022/09/16 11:35:33;;;;;;;2.30;0.65;;;14.90;99.90;;;;;;5053198;28;20462;-78
2022/09/16 11:38:19;;;;;;;4.13;0.60;;;14.90;99.90;;;;;;5053070;28;20029;-78
2022/09/16 11:41:10;;;;;;;3.05;0.77;;;14.80;99.90;;;;;;5049626;28;20561;-78
2022/09/16 11:44:07;;;;;;;0.98;0.50;;;14.80;99.90;;;;;;5052650;28;20029;-78
2022/09/16 11:46:43;;;;;;;3.58;1.13;;;14.80;99.90;;;;;;5052082;28;20043;-78
2022/09/16 11:49:32;;;;;;;3.35;0.75;;;14.80;99.90;;;;;;5051332;28;20071;-78
2022/09/16 11:52:14;;;;;;;1.48;0.90;;;14.80;99.90;;;;;;5052398;28;20370;-78
2022/09/16 11:55:20;;;;;;;1.33;0.40;;;14.80;99.90;;;;;;5053105;28;20017;-78
2022/09/16 11:57:54;;;;;;;1.20;0.40;;;14.80;99.90;;;;;;5050985;28;20534;-78
2022/09/16 12:00:21;;;;;;;0.85;0.38;;;14.80;99.90;;;;;;5052874;28;20017;-78
2022/09/16 12:03:42;;;;;;;2.33;0.50;;;14.80;99.90;;;;;;5052548;28;20076;-77
2022/09/16 12:06:15;;;;;;;1.48;0.40;;;14.80;99.90;;;;;;4999206;28;20102;-77
2022/09/16 12:08:51;;;;;;;4.57;0.52;;;14.80;99.90;;;;;;5052738;28;20528;-77
2022/09/16 12:11:26;;;;;;;2.90;0.68;;;14.80;99.90;;;;;;5052842;28;20013;-77
2022/09/16 12:14:10;;;;;;;2.10;0.68;;;14.80;99.90;;;;;;5052977;28;20051;-78
2022/09/16 12:16:48;;;;;;;5.18;0.70;;;14.80;99.90;;;;;;5052033;28;20425;-78
2022/09/16 12:20:04;;;;;;;2.95;0.70;;;14.80;99.90;;;;;;5052800;28;20036;-78
2022/09/16 12:23:16;;;;;;;2.75;0.70;;;14.80;99.90;;;;;;5042241;28;20082;-78
2022/09/16 12:25:57;;;;;;;1.45;0.60;;;14.80;99.90;;;;;;5047054;28;20029;-78
2022/09/16 12:28:34;;;;;;;0.95;0.50;;;14.80;99.90;;;;;;5054383;28;20355;-78
2022/09/16 12:31:28;;;;;;;3.53;0.70;;;14.70;99.90;;;;;;5056748;28;20414;-78
2022/09/16 12:34:16;;;;;;;0.73;0.30;;;14.70;99.90;;;;;;5048738;28;20494;-78
2022/09/16 12:36:48;;;;;;;2.17;0.47;;;14.70;99.90;;;;;;5054077;28;20106;-78
2022/09/16 12:39:16;;;;;;;1.90;0.70;;;14.70;99.90;;;;;;5056748;28;20481;-78
2022/09/16 12:42:07;;;;;;;0.93;0.43;;;14.60;99.90;;;;;;5052632;28;20032;-79
2022/09/16 12:44:48;;;;;;;3.05;0.95;;;14.60;99.90;;;;;;5055061;28;20025;-79
2022/09/16 12:47:47;;;;;;;4.13;0.90;;;14.60;99.90;;;;;;5055118;28;20024;-79
2022/09/16 12:50:15;;;;;;;4.57;0.63;;;14.60;99.90;;;;;;5045263;28;20099;-78
2022/09/16 12:53:14;;;;;;;0.85;0.50;;;14.50;99.90;;;;;;5055918;28;20104;-79
2022/09/16 12:56:01;;;;;;;5.13;0.50;;;14.50;99.90;;;;;;5054842;28;20013;-78
2022/09/16 12:59:01;;;;;;;2.45;0.93;;;14.50;99.90;;;;;;5056104;28;20082;-78
2022/09/16 13:02:18;;;;;;;1.67;0.60;;;14.40;99.90;;;;;;5053334;28;20428;-78
2022/09/16 13:04:50;;;;;;;1.30;0.77;;;14.50;99.90;;;;;;5046078;28;20116;-79
2022/09/16 13:07:34;;;;;;;1.40;0.50;;;14.50;99.90;;;;;;5056691;28;20262;-78
2022/09/16 13:10:19;;;;;;;0.95;0.30;;;14.50;99.90;;;;;;5056838;28;20060;-78
2022/09/16 13:12:54;;;;;;;3.20;0.50;;;14.50;99.90;;;;;;5056547;28;20017;-78
2022/09/16 13:15:26;;;;;;;;;;;14.50;99.90;;;;;;5057128;28;20025;-78
2022/09/16 13:17:54;;;;;;;1.48;0.50;;;14.50;99.90;;;;;;5056391;28;20324;-78
2022/09/16 13:20:32;;;;;;;2.65;0.55;;;14.50;99.90;;;;;;5056424;28;20036;-79
2022/09/16 13:23:24;;;;;;;2.90;0.85;;;14.50;99.90;;;;;;5056211;28;20024;-78
2022/09/16 13:25:59;;;;;;;1.95;0.88;;;14.40;99.90;;;;;;5056448;28;20025;-78
2022/09/16 13:28:35;;;;;;;2.05;0.55;;;14.40;99.90;;;;;;5056390;28;20063;-78
2022/09/16 13:31:28;;;;;;;3.03;0.68;;;14.40;99.90;;;;;;5056046;28;20029;-78
2022/09/16 13:33:58;;;;;;;2.83;0.70;;;14.40;99.90;;;;;;5056213;28;20029;-78
2022/09/16 13:36:27;;;;;;;5.95;0.50;;;14.40;99.90;;;;;;5056159;28;20474;-78
2022/09/16 13:38:56;;;;;;;2.10;0.65;;;14.40;99.90;;;;;;5055337;28;20339;-78